Time;durP1;ratioP1;P1;durP2;ratioP2;P2;SDS_P1;SDS_P2;PMS_P1;PMS_P2;Temp;Humidity;BMP_temperature;BMP_pressure;BME280_temperature;BME280_humidity;BME280_pressure;Samples;Min_cycle;Max_cycle;Signal;HPM_P1;HPM_P2
2021/05/19 00:00:58;;;;;;;1.92;0.70;;;9.70;99.90;;;;;;5025263;28;20082;-75
2021/05/19 00:03:24;;;;;;;0.95;0.70;;;9.80;99.90;;;;;;5028754;28;20962;-74
2021/05/19 00:05:50;;;;;;;2.38;0.68;;;9.80;99.90;;;;;;5027218;28;20456;-74
2021/05/19 00:08:15;;;;;;;1.23;0.70;;;9.80;99.90;;;;;;5027543;28;20152;-74
2021/05/19 00:10:41;;;;;;;1.98;1.15;;;9.80;99.90;;;;;;5026012;28;20078;-75
2021/05/19 00:13:07;;;;;;;1.88;0.68;;;9.80;99.90;;;;;;5024404;28;20086;-74
2021/05/19 00:15:33;;;;;;;2.78;0.65;;;9.80;99.90;;;;;;5017958;28;20535;-74
2021/05/19 00:18:05;;;;;;;2.25;0.75;;;9.80;99.90;;;;;;5025594;28;20078;-74
2021/05/19 00:20:31;;;;;;;1.20;0.75;;;9.80;99.90;;;;;;5009060;28;20078;-75
2021/05/19 00:22:57;;;;;;;1.23;0.70;;;9.80;99.90;;;;;;5026587;28;20109;-75
2021/05/19 00:25:23;;;;;;;0.80;0.50;;;9.80;99.90;;;;;;5025440;28;20065;-75
2021/05/19 00:27:48;;;;;;;3.08;1.00;;;9.70;99.90;;;;;;5028607;28;20074;-75
2021/05/19 00:30:18;;;;;;;3.47;1.15;;;9.70;99.90;;;;;;5016307;28;20189;-75
2021/05/19 00:32:44;;;;;;;3.50;1.13;;;9.70;99.90;;;;;;5019935;28;20173;-74
2021/05/19 00:35:10;;;;;;;1.70;0.90;;;9.70;99.90;;;;;;5027501;28;20164;-74
2021/05/19 00:37:35;;;;;;;1.15;0.60;;;9.60;99.90;;;;;;5027247;28;20553;-74
2021/05/19 00:40:01;;;;;;;6.38;1.90;;;9.50;99.90;;;;;;5032066;28;20101;-74
2021/05/19 00:42:26;;;;;;;1.38;0.50;;;9.60;99.90;;;;;;5027208;28;20569;-74
2021/05/19 00:44:52;;;;;;;1.98;0.68;;;9.60;99.90;;;;;;5030968;28;20078;-74
2021/05/19 00:47:32;;;;;;;1.85;0.63;;;9.60;99.90;;;;;;5028709;28;20112;-74
2021/05/19 00:49:58;;;;;;;2.70;0.75;;;9.70;99.90;;;;;;5027242;28;20156;-73
2021/05/19 00:52:23;;;;;;;2.28;0.40;;;9.60;99.90;;;;;;5030436;28;20070;-74
2021/05/19 00:54:49;;;;;;;1.27;0.85;;;9.60;99.90;;;;;;5027597;28;20156;-74
2021/05/19 00:57:15;;;;;;;2.85;0.90;;;9.70;99.90;;;;;;5029766;28;20085;-74
2021/05/19 00:59:41;;;;;;;0.60;0.50;;;9.70;99.90;;;;;;5028012;28;20445;-74
2021/05/19 01:02:06;;;;;;;1.20;0.60;;;9.70;99.90;;;;;;5029008;28;20204;-74
2021/05/19 01:04:32;;;;;;;1.40;0.50;;;9.60;99.90;;;;;;5033062;28;20104;-74
2021/05/19 01:07:01;;;;;;;1.15;0.65;;;9.70;99.90;;;;;;5029512;28;20078;-74
2021/05/19 01:09:35;;;;;;;1.77;0.70;;;9.70;99.90;;;;;;5025915;28;20098;-74
2021/05/19 01:12:23;;;;;;;1.50;0.60;;;9.70;99.90;;;;;;5030955;28;20142;-74
2021/05/19 01:14:50;;;;;;;1.25;0.65;;;9.70;99.90;;;;;;5025388;28;20178;-74
2021/05/19 01:17:16;;;;;;;1.30;0.60;;;9.60;99.90;;;;;;5023328;28;20174;-74
2021/05/19 01:19:45;;;;;;;1.02;0.65;;;9.70;99.90;;;;;;5014115;28;20274;-74
2021/05/19 01:22:12;;;;;;;2.08;0.70;;;9.70;99.90;;;;;;5027511;28;20168;-74
2021/05/19 01:24:40;;;;;;;1.55;0.55;;;9.70;99.90;;;;;;5030338;28;20074;-74
2021/05/19 01:27:07;;;;;;;1.92;1.00;;;9.80;99.90;;;;;;5028237;28;20101;-73
2021/05/19 01:29:33;;;;;;;2.13;0.60;;;9.80;99.90;;;;;;5018851;28;20086;-74
2021/05/19 01:31:59;;;;;;;2.13;0.80;;;9.70;99.90;;;;;;5031362;28;20082;-74
2021/05/19 01:34:25;;;;;;;0.85;0.47;;;9.80;99.90;;;;;;5027754;28;20105;-74
2021/05/19 01:36:51;;;;;;;1.20;0.65;;;9.80;99.90;;;;;;5029558;28;20568;-73
2021/05/19 01:39:17;;;;;;;0.88;0.60;;;9.80;99.90;;;;;;5020129;28;20090;-74
2021/05/19 01:41:46;;;;;;;1.10;0.70;;;9.80;99.90;;;;;;5027555;28;20882;-73
2021/05/19 01:44:17;;;;;;;0.95;0.77;;;9.80;99.90;;;;;;5012495;28;20771;-75
2021/05/19 01:46:43;;;;;;;1.08;0.68;;;9.80;99.90;;;;;;5024126;28;20077;-74
2021/05/19 01:49:11;;;;;;;0.93;0.60;;;9.60;99.90;;;;;;5019687;28;20450;-73
2021/05/19 01:51:38;;;;;;;1.75;0.50;;;9.70;99.90;;;;;;5027929;28;20534;-74
2021/05/19 01:54:05;;;;;;;4.00;0.60;;;9.70;99.90;;;;;;5036305;28;20205;-74
2021/05/19 01:56:34;;;;;;;1.00;0.50;;;9.70;99.90;;;;;;5027139;28;20074;-74
2021/05/19 01:58:59;;;;;;;1.10;0.57;;;9.80;99.90;;;;;;5024082;28;20094;-74
2021/05/19 02:01:25;;;;;;;0.45;0.38;;;9.70;99.90;;;;;;5024354;28;20591;-74
2021/05/19 02:03:51;;;;;;;2.47;0.57;;;9.60;99.90;;;;;;5028526;28;20093;-74
2021/05/19 02:06:16;;;;;;;1.30;0.50;;;9.60;99.90;;;;;;5027994;28;20092;-73
2021/05/19 02:08:42;;;;;;;1.10;0.40;;;9.60;99.90;;;;;;5027070;28;20163;-74
2021/05/19 02:11:08;;;;;;;0.70;0.65;;;9.70;99.90;;;;;;5028440;28;20084;-74
2021/05/19 02:13:33;;;;;;;1.25;0.45;;;9.50;99.90;;;;;;5028693;28;20085;-74
2021/05/19 02:15:59;;;;;;;0.80;0.30;;;9.60;99.90;;;;;;5027879;28;20082;-74
2021/05/19 02:18:24;;;;;;;1.00;0.65;;;9.70;99.90;;;;;;5024367;28;20452;-74
2021/05/19 02:20:50;;;;;;;0.43;0.38;;;9.70;99.90;;;;;;5025793;28;20184;-74
2021/05/19 02:23:16;;;;;;;1.90;0.30;;;9.70;99.90;;;;;;5028553;28;20148;-74
2021/05/19 02:25:41;;;;;;;2.95;0.63;;;9.70;99.90;;;;;;5010015;28;20078;-74
2021/05/19 02:28:07;;;;;;;0.77;0.55;;;9.70;99.90;;;;;;5023358;28;20081;-74
2021/05/19 02:30:33;;;;;;;0.60;0.38;;;9.70;99.90;;;;;;5028394;28;20994;-74
2021/05/19 02:32:58;;;;;;;1.55;0.30;;;9.70;99.90;;;;;;5031072;28;20728;-74
2021/05/19 02:35:24;;;;;;;0.98;0.32;;;9.60;99.90;;;;;;5042535;28;20084;-74
2021/05/19 02:37:50;;;;;;;0.63;0.35;;;9.60;99.90;;;;;;5042860;28;20110;-74
2021/05/19 02:40:16;;;;;;;1.95;0.63;;;9.70;99.90;;;;;;5019993;28;20132;-74
2021/05/19 02:42:44;;;;;;;1.58;0.65;;;9.70;99.90;;;;;;5026926;28;20110;-74
2021/05/19 02:45:10;;;;;;;1.13;0.55;;;9.70;99.90;;;;;;5024677;28;20078;-74
2021/05/19 02:47:36;;;;;;;1.60;0.55;;;9.70;99.90;;;;;;5024626;28;20088;-74
2021/05/19 02:50:04;;;;;;;0.63;0.40;;;9.70;99.90;;;;;;5020911;28;20093;-74
2021/05/19 02:52:29;;;;;;;0.35;0.30;;;9.70;99.90;;;;;;5010085;28;20513;-74
2021/05/19 02:54:55;;;;;;;0.77;0.50;;;9.60;99.90;;;;;;5022178;28;20082;-74
2021/05/19 02:57:20;;;;;;;1.38;0.40;;;9.60;99.90;;;;;;5033066;28;20082;-74
2021/05/19 02:59:46;;;;;;;0.93;0.38;;;9.50;99.90;;;;;;5021638;28;20098;-74
2021/05/19 03:02:12;;;;;;;0.65;0.52;;;9.40;99.90;;;;;;5025560;28;20089;-74
2021/05/19 03:04:37;;;;;;;0.45;0.30;;;9.40;99.90;;;;;;5027492;28;20088;-74
2021/05/19 03:07:04;;;;;;;0.95;0.60;;;9.50;99.90;;;;;;5044435;28;20132;-74
2021/05/19 03:09:29;;;;;;;1.48;0.45;;;9.50;99.90;;;;;;5018492;28;20093;-74
2021/05/19 03:11:55;;;;;;;1.35;0.60;;;9.50;99.90;;;;;;5023017;28;20071;-74
2021/05/19 03:14:21;;;;;;;2.05;1.05;;;9.50;99.90;;;;;;5021909;28;20078;-74
2021/05/19 03:16:46;;;;;;;0.75;0.60;;;9.50;99.90;;;;;;5026960;28;20082;-74
2021/05/19 03:19:12;;;;;;;1.67;0.40;;;9.50;99.90;;;;;;5024421;28;20098;-74
2021/05/19 03:21:37;;;;;;;0.85;0.63;;;9.40;99.90;;;;;;5022838;28;20092;-74
2021/05/19 03:24:04;;;;;;;0.75;0.50;;;9.40;99.90;;;;;;5024538;28;20105;-75
2021/05/19 03:26:30;;;;;;;1.15;0.50;;;9.40;99.90;;;;;;5026079;28;20094;-74
2021/05/19 03:28:55;;;;;;;0.77;0.50;;;9.50;99.90;;;;;;5018965;28;20624;-75
2021/05/19 03:31:21;;;;;;;1.55;0.73;;;9.40;99.90;;;;;;5019837;28;20165;-75
2021/05/19 03:33:47;;;;;;;1.52;0.73;;;9.40;99.90;;;;;;5029040;28;20113;-74
2021/05/19 03:36:13;;;;;;;0.80;0.60;;;9.40;99.90;;;;;;5026712;28;20169;-75
2021/05/19 03:38:39;;;;;;;0.70;0.43;;;9.30;99.90;;;;;;5021927;28;20666;-73
2021/05/19 03:41:05;;;;;;;1.25;0.50;;;9.30;99.90;;;;;;5024083;28;20078;-74
2021/05/19 03:43:32;;;;;;;0.75;0.60;;;9.40;99.90;;;;;;5025158;28;20100;-75
2021/05/19 03:45:57;;;;;;;3.25;0.80;;;9.40;99.90;;;;;;5015344;28;20124;-74
2021/05/19 03:48:23;;;;;;;1.02;0.40;;;9.30;99.90;;;;;;5015374;28;20093;-75
2021/05/19 03:50:49;;;;;;;2.20;0.60;;;9.30;99.90;;;;;;5022750;28;20086;-74
2021/05/19 03:53:15;;;;;;;1.67;0.63;;;9.30;99.90;;;;;;5010997;28;20139;-74
2021/05/19 03:55:40;;;;;;;0.75;0.40;;;9.30;99.90;;;;;;5022794;28;20082;-73
2021/05/19 03:58:06;;;;;;;1.90;1.65;;;9.30;99.90;;;;;;5008934;28;21984;-74
2021/05/19 04:00:35;;;;;;;3.33;0.90;;;9.30;99.90;;;;;;5023389;28;20086;-75
2021/05/19 04:03:05;;;;;;;1.65;0.77;;;9.40;99.90;;;;;;5028286;28;20086;-75
2021/05/19 04:05:35;;;;;;;1.48;0.90;;;9.30;99.90;;;;;;5026620;28;20169;-74
2021/05/19 04:08:00;;;;;;;2.30;1.23;;;9.30;99.90;;;;;;5040488;28;20152;-75
2021/05/19 04:10:26;;;;;;;2.38;0.82;;;9.30;99.90;;;;;;5023548;28;20255;-75
2021/05/19 04:12:53;;;;;;;1.88;0.50;;;9.20;99.90;;;;;;5023938;28;20495;-73
2021/05/19 04:15:22;;;;;;;1.33;0.98;;;9.30;99.90;;;;;;5037416;28;20526;-75
2021/05/19 04:17:47;;;;;;;1.50;0.77;;;9.20;99.90;;;;;;5023504;28;20078;-74
2021/05/19 04:20:14;;;;;;;1.85;1.00;;;9.20;99.90;;;;;;5022020;28;20100;-75
2021/05/19 04:22:40;;;;;;;1.63;1.08;;;9.10;99.90;;;;;;5021634;28;20177;-75
2021/05/19 04:25:07;;;;;;;3.17;1.10;;;9.20;99.90;;;;;;5025270;28;20070;-74
2021/05/19 04:27:33;;;;;;;1.50;1.17;;;9.20;99.90;;;;;;5026018;28;20203;-75
2021/05/19 04:29:59;;;;;;;1.23;0.90;;;9.20;99.90;;;;;;5018137;28;20089;-75
2021/05/19 04:32:25;;;;;;;5.35;1.10;;;9.20;99.90;;;;;;5024936;28;20127;-75
2021/05/19 04:34:51;;;;;;;1.27;1.02;;;9.30;99.90;;;;;;5043217;28;20538;-75
2021/05/19 04:37:16;;;;;;;1.83;1.33;;;9.20;99.90;;;;;;5028307;28;20167;-75
2021/05/19 04:39:42;;;;;;;3.13;1.10;;;9.20;99.90;;;;;;5015592;28;20168;-74
2021/05/19 04:42:09;;;;;;;2.55;1.30;;;9.20;99.90;;;;;;5015363;28;20081;-75
2021/05/19 04:44:34;;;;;;;3.90;1.60;;;9.20;99.90;;;;;;5026722;28;20089;-74
2021/05/19 04:47:00;;;;;;;1.48;1.30;;;9.20;99.90;;;;;;5025389;28;20084;-74
2021/05/19 04:49:25;;;;;;;3.22;1.40;;;9.20;99.90;;;;;;5025520;28;20098;-72
2021/05/19 04:51:51;;;;;;;2.95;1.15;;;9.10;99.90;;;;;;5025105;28;20075;-75
2021/05/19 04:54:17;;;;;;;2.67;1.25;;;9.10;99.90;;;;;;5020693;28;20149;-74
2021/05/19 04:56:43;;;;;;;1.92;1.00;;;9.10;99.90;;;;;;5026543;28;20090;-75
2021/05/19 04:59:08;;;;;;;1.55;1.05;;;9.00;99.90;;;;;;5024174;28;20101;-74
2021/05/19 05:01:34;;;;;;;2.08;1.23;;;9.10;99.90;;;;;;5025680;28;20249;-75
2021/05/19 05:04:00;;;;;;;1.83;1.10;;;9.10;99.90;;;;;;5025131;28;20562;-74
2021/05/19 05:06:26;;;;;;;1.40;1.00;;;9.00;99.90;;;;;;5023067;28;20066;-73
2021/05/19 05:08:52;;;;;;;1.30;1.15;;;9.00;99.90;;;;;;5026382;28;20177;-75
2021/05/19 05:11:17;;;;;;;1.55;1.23;;;9.00;99.90;;;;;;5026788;28;20157;-75
2021/05/19 05:13:43;;;;;;;6.55;1.65;;;8.90;99.90;;;;;;5026644;28;20088;-74
2021/05/19 05:16:09;;;;;;;2.05;1.02;;;9.00;99.90;;;;;;5025777;28;20089;-74
2021/05/19 05:18:39;;;;;;;1.50;1.35;;;9.00;99.90;;;;;;5027938;28;20094;-74
2021/05/19 05:21:05;;;;;;;2.80;1.20;;;9.10;99.90;;;;;;5023567;28;20082;-74
2021/05/19 05:23:31;;;;;;;1.25;0.80;;;9.00;99.90;;;;;;5031005;28;20086;-74
2021/05/19 05:26:01;;;;;;;1.38;0.85;;;9.10;99.90;;;;;;5027794;28;20143;-74
2021/05/19 05:28:26;;;;;;;1.75;1.30;;;9.00;99.90;;;;;;5025366;28;20469;-74
2021/05/19 05:30:52;;;;;;;3.47;1.35;;;9.10;99.90;;;;;;5028742;28;20074;-74
2021/05/19 05:33:18;;;;;;;1.50;1.10;;;9.10;99.90;;;;;;5030342;28;20082;-74
2021/05/19 05:35:44;;;;;;;1.48;0.90;;;9.10;99.90;;;;;;5045905;28;20156;-75
2021/05/19 05:38:09;;;;;;;2.05;1.15;;;9.10;99.90;;;;;;5031524;28;20153;-74
2021/05/19 05:40:35;;;;;;;3.30;1.50;;;9.00;99.90;;;;;;5018913;28;20069;-74
2021/05/19 05:43:01;;;;;;;3.08;1.65;;;9.00;99.90;;;;;;5028913;28;20177;-73
2021/05/19 05:45:27;;;;;;;2.58;1.50;;;9.10;99.90;;;;;;5044332;28;20518;-75
2021/05/19 05:47:53;;;;;;;2.85;2.05;;;9.10;99.90;;;;;;5024320;28;20753;-74
2021/05/19 05:50:19;;;;;;;1.73;1.50;;;9.10;99.90;;;;;;5021311;28;20096;-74
2021/05/19 05:52:44;;;;;;;5.43;2.38;;;9.10;99.90;;;;;;5027933;28;20081;-74
2021/05/19 05:55:10;;;;;;;2.17;1.73;;;9.20;99.90;;;;;;5027406;28;20607;-74
2021/05/19 05:57:36;;;;;;;5.13;2.83;;;9.20;99.90;;;;;;5032414;28;20093;-74
2021/05/19 06:00:05;;;;;;;3.33;2.22;;;9.20;99.90;;;;;;5028403;28;20320;-74
2021/05/19 06:02:30;;;;;;;3.47;2.03;;;9.20;99.90;;;;;;5025827;28;20094;-76
2021/05/19 06:04:56;;;;;;;5.15;2.00;;;9.20;99.90;;;;;;5029882;28;20120;-75
2021/05/19 06:07:21;;;;;;;4.65;2.10;;;9.20;99.90;;;;;;5027398;28;20154;-75
2021/05/19 06:09:50;;;;;;;2.13;1.92;;;9.30;99.90;;;;;;5020261;28;20090;-75
2021/05/19 06:12:16;;;;;;;2.45;1.73;;;9.20;99.90;;;;;;5019149;28;20569;-75
2021/05/19 06:14:42;;;;;;;2.33;2.13;;;9.30;99.90;;;;;;5040000;28;20118;-76
2021/05/19 06:17:10;;;;;;;3.58;2.58;;;9.20;99.90;;;;;;5029363;28;20175;-75
2021/05/19 06:19:35;;;;;;;2.55;2.20;;;9.30;99.90;;;;;;5021608;28;20090;-75
2021/05/19 06:22:01;;;;;;;2.67;2.13;;;9.30;99.90;;;;;;5016598;28;20161;-75
2021/05/19 06:24:27;;;;;;;3.05;2.00;;;9.30;99.90;;;;;;5010411;28;20100;-76
2021/05/19 06:26:53;;;;;;;2.83;2.50;;;9.30;99.90;;;;;;5034685;28;20086;-76
2021/05/19 06:29:18;;;;;;;2.15;1.92;;;9.30;99.90;;;;;;5028835;28;20089;-75
2021/05/19 06:31:44;;;;;;;2.30;2.10;;;9.20;99.90;;;;;;5029866;28;20078;-76
2021/05/19 06:34:10;;;;;;;4.75;2.53;;;9.30;99.90;;;;;;5013007;28;20200;-73
2021/05/19 06:36:38;;;;;;;2.70;2.15;;;9.30;99.90;;;;;;5024339;28;20172;-73
2021/05/19 06:39:04;;;;;;;2.95;2.00;;;9.30;99.90;;;;;;5024115;28;20090;-75
2021/05/19 06:41:30;;;;;;;3.67;2.60;;;9.30;99.90;;;;;;5025000;28;20553;-76
2021/05/19 06:43:55;;;;;;;3.67;2.38;;;9.20;99.90;;;;;;5028882;28;20133;-72
2021/05/19 06:46:21;;;;;;;3.03;2.40;;;9.20;99.90;;;;;;5028219;28;20581;-75
2021/05/19 06:48:46;;;;;;;3.47;2.92;;;9.30;99.90;;;;;;5025657;28;20090;-76
2021/05/19 06:51:12;;;;;;;3.50;3.20;;;9.40;99.90;;;;;;5026610;28;20128;-74
2021/05/19 06:53:37;;;;;;;3.25;2.95;;;9.40;99.90;;;;;;5047036;28;20499;-74
2021/05/19 06:56:03;;;;;;;3.47;3.10;;;9.40;99.90;;;;;;5024108;28;20500;-75
2021/05/19 06:58:29;;;;;;;3.78;3.28;;;9.50;99.90;;;;;;5029496;28;20089;-79
2021/05/19 07:00:54;;;;;;;3.58;2.67;;;9.60;99.90;;;;;;5028696;28;20608;-77
2021/05/19 07:03:20;;;;;;;3.92;2.88;;;9.60;99.90;;;;;;5028401;28;20097;-76
2021/05/19 07:05:46;;;;;;;3.80;3.42;;;9.50;99.90;;;;;;5027117;28;20485;-74
2021/05/19 07:08:11;;;;;;;4.93;3.95;;;9.60;99.90;;;;;;5021498;28;20157;-75
2021/05/19 07:10:37;;;;;;;3.70;3.33;;;9.60;99.90;;;;;;5022635;28;20074;-75
2021/05/19 07:13:03;;;;;;;7.00;4.05;;;9.60;99.90;;;;;;5023953;28;20128;-74
2021/05/19 07:15:32;;;;;;;4.45;3.53;;;9.60;99.90;;;;;;5024867;28;20073;-75
2021/05/19 07:18:05;;;;;;;4.78;3.90;;;9.60;99.90;;;;;;5027827;28;20560;-77
2021/05/19 07:20:31;;;;;;;7.00;3.67;;;9.70;99.90;;;;;;5025683;28;20167;-76
2021/05/19 07:22:56;;;;;;;4.68;2.95;;;9.70;99.90;;;;;;5026381;28;20596;-75
2021/05/19 07:25:22;;;;;;;4.47;3.85;;;9.70;99.90;;;;;;5028985;28;20103;-76
2021/05/19 07:27:47;;;;;;;4.15;3.53;;;9.80;99.90;;;;;;5027955;28;20165;-77
2021/05/19 07:30:14;;;;;;;6.35;3.72;;;9.80;99.90;;;;;;5025327;28;20098;-75
2021/05/19 07:32:39;;;;;;;4.53;4.03;;;9.80;99.90;;;;;;5038526;28;20078;-74
2021/05/19 07:35:06;;;;;;;4.80;4.03;;;9.80;99.90;;;;;;5026437;28;20453;-76
2021/05/19 07:37:31;;;;;;;5.20;4.38;;;9.80;99.90;;;;;;5026752;28;20069;-75
2021/05/19 07:39:57;;;;;;;5.10;4.00;;;9.80;99.90;;;;;;5027576;28;20101;-76
2021/05/19 07:42:23;;;;;;;6.30;4.30;;;9.90;99.90;;;;;;5011114;28;20092;-77
2021/05/19 07:44:48;;;;;;;5.38;4.30;;;10.00;99.90;;;;;;5028177;28;20096;-78
2021/05/19 07:47:14;;;;;;;4.53;4.05;;;10.00;99.90;;;;;;5028476;28;20077;-76
2021/05/19 07:49:40;;;;;;;5.07;3.80;;;10.10;99.90;;;;;;5017310;28;20108;-75
2021/05/19 07:52:06;;;;;;;4.65;4.15;;;10.10;99.90;;;;;;5024816;28;20070;-75
2021/05/19 07:54:32;;;;;;;5.88;4.80;;;10.10;99.90;;;;;;5025277;28;20169;-80
2021/05/19 07:57:23;;;;;;;5.88;4.93;;;10.20;99.90;;;;;;5027763;28;20565;-76
2021/05/19 07:59:46;;;;;;;5.47;4.30;;;10.10;99.90;;;;;;5024904;28;20532;-75
2021/05/19 08:02:13;;;;;;;6.88;4.50;;;10.20;99.90;;;;;;5027029;28;20074;-76
2021/05/19 08:04:39;;;;;;;4.97;4.47;;;10.20;99.90;;;;;;5028227;28;20135;-77
2021/05/19 08:07:06;;;;;;;6.15;4.35;;;10.30;99.90;;;;;;5027119;28;20078;-81
2021/05/19 08:09:32;;;;;;;7.13;5.07;;;10.40;99.90;;;;;;5028391;28;20089;-76
2021/05/19 08:11:58;;;;;;;5.97;5.15;;;10.40;99.90;;;;;;5028892;28;20078;-77
2021/05/19 08:14:29;;;;;;;5.95;4.55;;;10.40;99.90;;;;;;5026763;28;20558;-77
2021/05/19 08:16:58;;;;;;;8.35;4.88;;;10.50;99.90;;;;;;5028765;28;20084;-76
2021/05/19 08:19:25;;;;;;;5.38;4.88;;;10.30;99.90;;;;;;5036750;28;20144;-76
2021/05/19 08:21:50;;;;;;;5.15;4.50;;;10.30;99.90;;;;;;5019976;28;20513;-77
2021/05/19 08:24:16;;;;;;;5.05;4.55;;;10.30;99.90;;;;;;5028134;28;20112;-76
2021/05/19 08:26:42;;;;;;;7.13;5.30;;;10.30;99.90;;;;;;5026611;28;20163;-76
2021/05/19 08:29:08;;;;;;;7.03;4.65;;;10.40;99.90;;;;;;5028838;28;20094;-77
2021/05/19 08:31:33;;;;;;;5.40;4.90;;;10.40;99.90;;;;;;5022821;28;20787;-76
2021/05/19 08:33:59;;;;;;;5.13;4.63;;;10.50;99.90;;;;;;5028922;28;20495;-75
2021/05/19 08:36:25;;;;;;;5.18;4.68;;;10.60;99.90;;;;;;5028543;28;20085;-77
2021/05/19 08:38:53;;;;;;;5.60;5.07;;;10.90;99.90;;;;;;5028825;28;20093;-75
2021/05/19 08:41:19;;;;;;;6.60;5.25;;;10.80;99.90;;;;;;5025885;28;20070;-76
2021/05/19 08:43:44;;;;;;;6.20;5.13;;;10.80;99.90;;;;;;5027040;28;20093;-76
2021/05/19 08:46:11;;;;;;;5.72;4.68;;;10.70;99.90;;;;;;5024177;28;20077;-79
2021/05/19 08:48:39;;;;;;;5.90;4.57;;;10.80;99.90;;;;;;5029023;28;20136;-77
2021/05/19 08:51:05;;;;;;;5.57;4.45;;;10.80;99.90;;;;;;5025113;28;20070;-76
2021/05/19 08:53:32;;;;;;;5.40;4.57;;;10.80;99.90;;;;;;5044082;28;20086;-76
2021/05/19 08:55:59;;;;;;;5.60;4.75;;;11.00;99.90;;;;;;5043964;28;20096;-75
2021/05/19 08:58:25;;;;;;;6.47;4.93;;;11.00;99.90;;;;;;5032516;28;20527;-76
2021/05/19 09:00:51;;;;;;;8.20;5.53;;;11.10;99.90;;;;;;5030394;28;20101;-76
2021/05/19 09:03:17;;;;;;;8.55;6.13;;;11.20;99.90;;;;;;5030069;28;20209;-77
2021/05/19 09:05:45;;;;;;;6.55;5.13;;;11.30;99.90;;;;;;5031833;28;20078;-76
2021/05/19 09:08:16;;;;;;;5.35;4.85;;;11.40;99.90;;;;;;5031590;28;20074;-76
2021/05/19 09:10:43;;;;;;;5.18;4.60;;;11.20;99.90;;;;;;5025735;28;20563;-77
2021/05/19 09:13:35;;;;;;;5.88;5.28;;;11.20;99.90;;;;;;5032434;28;20070;-77
2021/05/19 09:16:03;;;;;;;7.85;4.95;;;11.30;99.90;;;;;;5031553;28;20078;-76
2021/05/19 09:19:07;;;;;;;5.70;4.65;;;11.30;99.90;;;;;;5029879;28;20089;-76
2021/05/19 09:21:39;;;;;;;7.07;5.45;;;11.50;99.90;;;;;;4969088;28;20090;-76
2021/05/19 09:24:20;;;;;;;5.47;4.65;;;11.70;99.90;;;;;;4967664;28;20084;-76
2021/05/19 09:26:52;;;;;;;6.80;5.00;;;11.60;99.90;;;;;;4992316;28;20534;-76
2021/05/19 09:29:26;;;;;;;6.47;5.55;;;11.50;99.90;;;;;;5043989;28;20178;-77
2021/05/19 09:32:07;;;;;;;5.85;4.30;;;11.50;99.90;;;;;;5028993;28;20569;-76
2021/05/19 09:34:38;;;;;;;5.13;4.20;;;11.60;99.90;;;;;;5034385;28;20078;-76
2021/05/19 09:37:13;;;;;;;5.45;4.07;;;11.60;99.90;;;;;;5028423;28;20096;-76
2021/05/19 09:40:06;;;;;;;5.05;4.03;;;11.80;99.90;;;;;;5030374;28;20097;-76
2021/05/19 09:42:40;;;;;;;4.35;3.92;;;11.80;99.90;;;;;;5025017;28;20108;-76
2021/05/19 09:45:24;;;;;;;5.22;4.22;;;12.00;99.90;;;;;;5042527;28;20525;-76
2021/05/19 09:47:52;;;;;;;5.37;4.23;;;12.10;99.90;;;;;;5029763;28;20093;-76
2021/05/19 09:50:20;;;;;;;6.07;4.47;;;12.10;99.90;;;;;;5030264;28;20300;-76
2021/05/19 09:53:05;;;;;;;4.40;4.00;;;12.20;99.90;;;;;;5026271;28;20078;-81
2021/05/19 09:55:32;;;;;;;7.25;3.90;;;12.40;99.90;;;;;;5023248;28;20075;-81
2021/05/19 09:57:57;;;;;;;6.15;4.43;;;12.60;99.90;;;;;;5032868;28;20078;-83
2021/05/19 10:00:26;;;;;;;6.45;4.10;;;12.60;99.90;;;;;;5042761;28;20112;-83
2021/05/19 10:02:52;;;;;;;4.90;3.60;;;12.50;99.90;;;;;;5032573;28;20090;-76
2021/05/19 10:05:33;;;;;;;3.30;2.90;;;12.50;99.90;;;;;;5030579;28;20176;-75
2021/05/19 10:07:59;;;;;;;3.85;3.28;;;12.50;99.90;;;;;;5029289;28;20078;-75
2021/05/19 10:10:25;;;;;;;4.40;3.17;;;12.60;99.90;;;;;;5029670;28;20121;-75
2021/05/19 10:12:51;;;;;;;3.58;3.10;;;12.60;99.90;;;;;;5030221;28;20561;-76
2021/05/19 10:15:29;;;;;;;4.15;3.60;;;12.40;99.90;;;;;;5027569;28;20141;-75
2021/05/19 10:18:08;;;;;;;4.75;3.63;;;12.50;99.90;;;;;;5031292;28;20088;-75
2021/05/19 10:20:40;;;;;;;4.47;4.07;;;12.40;99.90;;;;;;5027184;28;20086;-76
2021/05/19 10:23:07;;;;;;;6.35;4.03;;;12.50;99.90;;;;;;5017501;28;20098;-75
2021/05/19 10:25:39;;;;;;;3.90;3.42;;;12.60;99.90;;;;;;5029229;28;20070;-75
2021/05/19 10:28:16;;;;;;;4.97;3.70;;;12.70;99.90;;;;;;5030510;28;20128;-76
2021/05/19 10:30:43;;;;;;;3.47;3.17;;;12.70;99.90;;;;;;5027721;28;20061;-76
2021/05/19 10:33:30;;;;;;;4.43;3.20;;;12.60;99.90;;;;;;5027972;28;20175;-76
2021/05/19 10:35:57;;;;;;;4.40;3.33;;;12.70;99.90;;;;;;5029673;28;20082;-76
2021/05/19 10:38:35;;;;;;;4.82;3.50;;;12.70;99.90;;;;;;5030422;28;20069;-75
2021/05/19 10:41:03;;;;;;;5.95;3.67;;;12.60;99.90;;;;;;5028774;28;20149;-76
2021/05/19 10:43:48;;;;;;;4.80;4.28;;;12.60;99.90;;;;;;5029918;28;20100;-76
2021/05/19 10:46:34;;;;;;;5.82;3.40;;;12.50;99.90;;;;;;5029594;28;20070;-75
2021/05/19 10:49:00;;;;;;;5.00;3.72;;;12.60;99.90;;;;;;5028755;28;20116;-75
2021/05/19 10:51:43;;;;;;;4.35;3.45;;;12.90;99.90;;;;;;5029378;28;20135;-76
2021/05/19 10:57:20;;;;;;;4.70;3.17;;;12.80;99.90;;;;;;5024193;28;20132;-76
2021/05/19 11:00:17;;;;;;;5.72;3.03;;;12.80;99.90;;;;;;5023263;28;20108;-75
2021/05/19 11:02:58;;;;;;;4.65;3.22;;;12.70;99.90;;;;;;5025276;28;20139;-74
2021/05/19 11:05:48;;;;;;;3.42;3.13;;;12.80;99.90;;;;;;5025811;28;20073;-76
2021/05/19 11:08:24;;;;;;;5.65;3.08;;;13.00;99.90;;;;;;5041044;28;20085;-75
2021/05/19 11:10:55;;;;;;;3.35;3.05;;;13.00;99.90;;;;;;5017746;28;20560;-75
2021/05/19 11:13:23;;;;;;;3.25;2.60;;;13.00;99.90;;;;;;5028323;28;20070;-76
2021/05/19 11:21:22;;;;;;;3.10;2.05;;;13.20;99.90;;;;;;5026139;28;20436;-75
2021/05/19 11:24:11;;;;;;;3.22;1.20;;;13.00;99.90;;;;;;5022042;28;20094;-75
2021/05/19 11:26:43;;;;;;;0.93;0.82;;;12.90;99.90;;;;;;5024202;28;20082;-79
2021/05/19 11:29:11;;;;;;;3.40;0.82;;;12.80;99.70;;;;;;5036524;28;20125;-80
2021/05/19 11:31:48;;;;;;;0.80;0.50;;;13.00;99.70;;;;;;5038364;28;20074;-77
2021/05/19 11:34:16;;;;;;;2.25;0.50;;;13.30;98.00;;;;;;5043500;28;20204;-76
2021/05/19 11:36:44;;;;;;;0.82;0.43;;;13.40;97.00;;;;;;5027498;28;20082;-75
2021/05/19 11:39:25;;;;;;;4.60;1.00;;;13.30;98.30;;;;;;5030183;28;20184;-76
2021/05/19 11:41:53;;;;;;;3.50;0.73;;;13.50;99.90;;;;;;5025012;28;20074;-77
2021/05/19 11:44:40;;;;;;;1.52;0.90;;;13.50;99.90;;;;;;5023938;28;20296;-75
2021/05/19 11:47:06;;;;;;;2.00;1.80;;;13.50;99.90;;;;;;5023147;28;20080;-75
2021/05/19 11:49:33;;;;;;;3.15;1.35;;;13.60;99.90;;;;;;5018365;28;20193;-81
2021/05/19 11:51:58;;;;;;;2.85;1.33;;;13.70;99.60;;;;;;5033255;28;20078;-76
2021/05/19 11:54:24;;;;;;;3.35;2.00;;;13.70;99.90;;;;;;5027029;28;20085;-75
2021/05/19 11:56:54;;;;;;;3.63;1.48;;;13.60;99.90;;;;;;5026900;28;20081;-79
2021/05/19 11:59:26;;;;;;;1.75;1.40;;;13.60;99.90;;;;;;5027692;28;20094;-77
2021/05/19 12:01:54;;;;;;;2.63;2.00;;;13.80;99.90;;;;;;5019358;28;20106;-75
2021/05/19 12:04:20;;;;;;;2.72;2.28;;;13.70;99.90;;;;;;5025536;28;20125;-75
2021/05/19 12:06:47;;;;;;;2.15;1.48;;;13.50;99.90;;;;;;5026050;28;20081;-74
2021/05/19 12:09:14;;;;;;;5.72;1.88;;;13.70;99.90;;;;;;5026004;28;20125;-75
2021/05/19 12:11:40;;;;;;;1.88;1.60;;;13.70;99.90;;;;;;5027103;28;20074;-75
2021/05/19 12:14:10;;;;;;;2.63;1.80;;;13.70;99.90;;;;;;5021014;28;20196;-74
2021/05/19 12:16:41;;;;;;;2.28;1.60;;;13.70;99.90;;;;;;5025493;28;20086;-77
2021/05/19 12:19:13;;;;;;;1.33;1.23;;;13.50;99.90;;;;;;5008118;28;20094;-74
2021/05/19 12:22:03;;;;;;;2.03;1.67;;;13.30;99.90;;;;;;5023417;28;20086;-76
2021/05/19 12:24:29;;;;;;;2.60;2.38;;;13.10;99.90;;;;;;5014578;28;20199;-73
2021/05/19 12:26:56;;;;;;;4.07;3.30;;;12.70;99.90;;;;;;5025425;28;20818;-74
2021/05/19 12:29:44;;;;;;;4.90;3.55;;;12.40;99.90;;;;;;5028385;28;20144;-78
2021/05/19 12:32:23;;;;;;;5.10;3.30;;;12.20;99.90;;;;;;5037482;28;20223;-75
2021/05/19 12:35:08;;;;;;;3.83;3.15;;;12.40;99.90;;;;;;5029908;28;20080;-75
2021/05/19 12:37:53;;;;;;;3.92;3.47;;;12.90;99.90;;;;;;5036223;28;20077;-74
2021/05/19 12:40:24;;;;;;;3.67;3.33;;;13.00;99.90;;;;;;5044328;28;20090;-75
2021/05/19 12:42:59;;;;;;;3.60;3.30;;;13.60;99.90;;;;;;5029401;28;20089;-74
2021/05/19 12:45:29;;;;;;;4.72;3.30;;;13.40;99.90;;;;;;5027226;28;20084;-77
2021/05/19 12:48:10;;;;;;;3.70;3.30;;;13.20;99.90;;;;;;5026862;28;20066;-79
2021/05/19 12:50:45;;;;;;;3.80;3.40;;;13.00;99.90;;;;;;5043027;28;20097;-75
2021/05/19 12:53:38;;;;;;;4.97;3.03;;;12.80;99.90;;;;;;5025920;28;20074;-76
2021/05/19 12:56:10;;;;;;;4.03;3.60;;;13.00;99.90;;;;;;5024010;28;20085;-74
2021/05/19 12:59:00;;;;;;;3.65;2.85;;;13.20;99.90;;;;;;5025984;28;20102;-72
2021/05/19 13:01:28;;;;;;;3.28;2.67;;;13.50;99.90;;;;;;5042930;28;20075;-76
2021/05/19 13:03:54;;;;;;;5.18;2.80;;;13.50;99.90;;;;;;5031223;28;20159;-80
2021/05/19 13:06:27;;;;;;;3.38;2.25;;;13.80;99.90;;;;;;5030840;28;20069;-77
2021/05/19 13:09:00;;;;;;;2.80;2.22;;;13.80;99.90;;;;;;5031937;28;20651;-74